sensor_id;sensor_type;location;lat;lon;timestamp;temperature;humidity
25973;DHT22;13765;51.166;4.466;2023-06-14T00:01:06;20.10;99.90
25973;DHT22;13765;51.166;4.466;2023-06-14T00:03:31;20.10;99.90
25973;DHT22;13765;51.166;4.466;2023-06-14T00:05:58;20.00;99.90
25973;DHT22;13765;51.166;4.466;2023-06-14T00:08:28;20.10;99.90
25973;DHT22;13765;51.166;4.466;2023-06-14T00:10:54;20.00;99.90
25973;DHT22;13765;51.166;4.466;2023-06-14T00:13:21;19.90;99.90
25973;DHT22;13765;51.166;4.466;2023-06-14T00:15:47;20.00;99.90
25973;DHT22;13765;51.166;4.466;2023-06-14T00:18:15;19.90;99.90
25973;DHT22;13765;51.166;4.466;2023-06-14T00:20:41;20.00;99.90
25973;DHT22;13765;51.166;4.466;2023-06-14T00:23:10;19.90;99.90
25973;DHT22;13765;51.166;4.466;2023-06-14T00:25:35;19.90;99.90
25973;DHT22;13765;51.166;4.466;2023-06-14T00:28:01;19.80;99.90
25973;DHT22;13765;51.166;4.466;2023-06-14T00:30:27;19.80;99.90
25973;DHT22;13765;51.166;4.466;2023-06-14T00:32:56;19.80;99.90
25973;DHT22;13765;51.166;4.466;2023-06-14T00:35:22;19.70;99.90
25973;DHT22;13765;51.166;4.466;2023-06-14T00:37:48;19.70;99.90
25973;DHT22;13765;51.166;4.466;2023-06-14T00:40:16;19.60;99.90
25973;DHT22;13765;51.166;4.466;2023-06-14T00:42:41;19.70;99.90
25973;DHT22;13765;51.166;4.466;2023-06-14T00:45:10;19.70;99.90
25973;DHT22;13765;51.166;4.466;2023-06-14T00:47:41;19.50;99.90
25973;DHT22;13765;51.166;4.466;2023-06-14T00:50:09;19.50;99.90
25973;DHT22;13765;51.166;4.466;2023-06-14T00:52:37;19.60;99.90
25973;DHT22;13765;51.166;4.466;2023-06-14T00:55:03;19.50;99.90
25973;DHT22;13765;51.166;4.466;2023-06-14T00:57:32;19.50;99.90
25973;DHT22;13765;51.166;4.466;2023-06-14T00:59:57;19.50;99.90
25973;DHT22;13765;51.166;4.466;2023-06-14T01:02:23;19.50;99.90
25973;DHT22;13765;51.166;4.466;2023-06-14T01:04:53;19.50;99.90
25973;DHT22;13765;51.166;4.466;2023-06-14T01:12:57;19.40;99.90
25973;DHT22;13765;51.166;4.466;2023-06-14T01:15:24;19.50;99.90
25973;DHT22;13765;51.166;4.466;2023-06-14T01:17:53;19.40;99.90
25973;DHT22;13765;51.166;4.466;2023-06-14T01:20:22;19.40;99.90
25973;DHT22;13765;51.166;4.466;2023-06-14T01:22:53;19.30;99.90
25973;DHT22;13765;51.166;4.466;2023-06-14T01:25:22;19.20;99.90
25973;DHT22;13765;51.166;4.466;2023-06-14T01:27:55;19.20;99.90
25973;DHT22;13765;51.166;4.466;2023-06-14T01:30:23;19.10;99.90
25973;DHT22;13765;51.166;4.466;2023-06-14T01:32:53;19.00;99.90
25973;DHT22;13765;51.166;4.466;2023-06-14T01:35:20;19.10;99.90
25973;DHT22;13765;51.166;4.466;2023-06-14T01:37:49;19.20;99.90
25973;DHT22;13765;51.166;4.466;2023-06-14T01:40:15;19.00;99.90
25973;DHT22;13765;51.166;4.466;2023-06-14T01:42:41;19.10;99.90
25973;DHT22;13765;51.166;4.466;2023-06-14T01:45:09;19.10;99.90
25973;DHT22;13765;51.166;4.466;2023-06-14T01:47:38;19.10;99.90
25973;DHT22;13765;51.166;4.466;2023-06-14T01:50:05;19.20;99.90
25973;DHT22;13765;51.166;4.466;2023-06-14T01:52:33;19.30;99.90
25973;DHT22;13765;51.166;4.466;2023-06-14T01:54:59;19.30;99.90
25973;DHT22;13765;51.166;4.466;2023-06-14T01:57:28;19.20;99.90
25973;DHT22;13765;51.166;4.466;2023-06-14T01:59:53;19.30;99.90
25973;DHT22;13765;51.166;4.466;2023-06-14T02:02:19;19.20;99.90
25973;DHT22;13765;51.166;4.466;2023-06-14T02:04:45;19.00;99.90
25973;DHT22;13765;51.166;4.466;2023-06-14T02:07:13;19.00;99.90
25973;DHT22;13765;51.166;4.466;2023-06-14T02:09:43;18.90;99.90
25973;DHT22;13765;51.166;4.466;2023-06-14T02:12:11;18.80;99.90
25973;DHT22;13765;51.166;4.466;2023-06-14T02:14:37;18.80;99.90
25973;DHT22;13765;51.166;4.466;2023-06-14T02:17:03;18.70;99.90
25973;DHT22;13765;51.166;4.466;2023-06-14T02:19:33;18.80;99.90
25973;DHT22;13765;51.166;4.466;2023-06-14T02:21:58;18.70;99.90
25973;DHT22;13765;51.166;4.466;2023-06-14T02:24:24;18.70;99.90
25973;DHT22;13765;51.166;4.466;2023-06-14T02:26:52;18.70;99.90
25973;DHT22;13765;51.166;4.466;2023-06-14T02:29:18;18.60;99.90
25973;DHT22;13765;51.166;4.466;2023-06-14T02:31:48;18.60;99.90
25973;DHT22;13765;51.166;4.466;2023-06-14T02:34:14;18.50;99.90
25973;DHT22;13765;51.166;4.466;2023-06-14T02:36:44;18.50;99.90
25973;DHT22;13765;51.166;4.466;2023-06-14T02:39:10;18.60;99.90
25973;DHT22;13765;51.166;4.466;2023-06-14T02:41:38;18.50;99.90
25973;DHT22;13765;51.166;4.466;2023-06-14T02:44:06;18.40;99.90
25973;DHT22;13765;51.166;4.466;2023-06-14T02:46:34;18.40;99.90
25973;DHT22;13765;51.166;4.466;2023-06-14T02:49:00;18.30;99.90
25973;DHT22;13765;51.166;4.466;2023-06-14T02:51:28;18.40;99.90
25973;DHT22;13765;51.166;4.466;2023-06-14T02:53:54;18.30;99.90
25973;DHT22;13765;51.166;4.466;2023-06-14T02:56:24;18.30;99.90
25973;DHT22;13765;51.166;4.466;2023-06-14T02:58:53;18.20;99.90
25973;DHT22;13765;51.166;4.466;2023-06-14T03:01:21;18.20;99.90
25973;DHT22;13765;51.166;4.466;2023-06-14T03:03:51;18.10;99.90
25973;DHT22;13765;51.166;4.466;2023-06-14T03:06:16;18.20;99.90
25973;DHT22;13765;51.166;4.466;2023-06-14T03:08:42;18.10;99.90
25973;DHT22;13765;51.166;4.466;2023-06-14T03:11:11;18.20;99.90
25973;DHT22;13765;51.166;4.466;2023-06-14T03:13:39;18.20;99.90
25973;DHT22;13765;51.166;4.466;2023-06-14T03:16:06;18.10;99.90
25973;DHT22;13765;51.166;4.466;2023-06-14T03:18:32;18.00;99.90
25973;DHT22;13765;51.166;4.466;2023-06-14T03:21:04;17.90;99.90
25973;DHT22;13765;51.166;4.466;2023-06-14T03:23:34;17.90;99.90
25973;DHT22;13765;51.166;4.466;2023-06-14T03:26:02;17.90;99.90
25973;DHT22;13765;51.166;4.466;2023-06-14T03:28:27;17.90;99.90
25973;DHT22;13765;51.166;4.466;2023-06-14T03:30:55;17.90;99.90
25973;DHT22;13765;51.166;4.466;2023-06-14T03:33:23;17.90;99.90
25973;DHT22;13765;51.166;4.466;2023-06-14T03:35:50;17.90;99.90
25973;DHT22;13765;51.166;4.466;2023-06-14T03:38:16;17.80;99.90
25973;DHT22;13765;51.166;4.466;2023-06-14T03:40:42;17.90;99.90
25973;DHT22;13765;51.166;4.466;2023-06-14T03:43:07;17.90;99.90
25973;DHT22;13765;51.166;4.466;2023-06-14T03:45:33;17.80;99.90
25973;DHT22;13765;51.166;4.466;2023-06-14T03:47:59;17.80;99.90
25973;DHT22;13765;51.166;4.466;2023-06-14T03:50:28;17.80;99.90
25973;DHT22;13765;51.166;4.466;2023-06-14T03:52:54;17.70;99.90
25973;DHT22;13765;51.166;4.466;2023-06-14T03:55:20;17.80;99.90
25973;DHT22;13765;51.166;4.466;2023-06-14T03:57:48;17.70;99.90
25973;DHT22;13765;51.166;4.466;2023-06-14T04:00:16;17.80;99.90
25973;DHT22;13765;51.166;4.466;2023-06-14T04:02:42;17.80;99.90
25973;DHT22;13765;51.166;4.466;2023-06-14T04:05:09;17.80;99.90
25973;DHT22;13765;51.166;4.466;2023-06-14T04:07:35;17.80;99.90
25973;DHT22;13765;51.166;4.466;2023-06-14T04:10:13;17.80;99.90
25973;DHT22;13765;51.166;4.466;2023-06-14T04:12:39;17.80;99.90
25973;DHT22;13765;51.166;4.466;2023-06-14T04:15:08;17.80;99.90
25973;DHT22;13765;51.166;4.466;2023-06-14T04:17:34;17.80;99.90
25973;DHT22;13765;51.166;4.466;2023-06-14T04:20:05;17.90;99.90
25973;DHT22;13765;51.166;4.466;2023-06-14T04:22:33;17.90;99.90
25973;DHT22;13765;51.166;4.466;2023-06-14T04:24:59;17.90;99.90
25973;DHT22;13765;51.166;4.466;2023-06-14T04:27:29;17.90;99.90
25973;DHT22;13765;51.166;4.466;2023-06-14T04:30:01;17.90;99.90
25973;DHT22;13765;51.166;4.466;2023-06-14T04:32:28;17.90;99.90
25973;DHT22;13765;51.166;4.466;2023-06-14T04:35:00;17.90;99.90
25973;DHT22;13765;51.166;4.466;2023-06-14T04:37:31;17.90;99.90
25973;DHT22;13765;51.166;4.466;2023-06-14T04:39:59;18.00;99.90
25973;DHT22;13765;51.166;4.466;2023-06-14T04:42:32;18.00;99.90
25973;DHT22;13765;51.166;4.466;2023-06-14T04:44:58;18.10;99.90
25973;DHT22;13765;51.166;4.466;2023-06-14T04:47:24;18.10;99.90
25973;DHT22;13765;51.166;4.466;2023-06-14T04:49:56;18.10;99.90
25973;DHT22;13765;51.166;4.466;2023-06-14T04:52:24;18.20;99.90
25973;DHT22;13765;51.166;4.466;2023-06-14T04:54:52;18.30;99.90
25973;DHT22;13765;51.166;4.466;2023-06-14T04:57:19;18.30;99.90
25973;DHT22;13765;51.166;4.466;2023-06-14T04:59:48;18.30;99.90
25973;DHT22;13765;51.166;4.466;2023-06-14T05:02:16;18.40;99.90
25973;DHT22;13765;51.166;4.466;2023-06-14T05:04:41;18.40;99.90
25973;DHT22;13765;51.166;4.466;2023-06-14T05:07:08;18.60;99.90
25973;DHT22;13765;51.166;4.466;2023-06-14T05:09:38;18.80;99.90
25973;DHT22;13765;51.166;4.466;2023-06-14T05:12:06;18.80;99.90
25973;DHT22;13765;51.166;4.466;2023-06-14T05:14:37;18.80;99.90
25973;DHT22;13765;51.166;4.466;2023-06-14T05:17:03;18.90;99.90
25973;DHT22;13765;51.166;4.466;2023-06-14T05:19:29;19.10;99.90
25973;DHT22;13765;51.166;4.466;2023-06-14T05:21:55;19.80;99.90
25973;DHT22;13765;51.166;4.466;2023-06-14T05:24:20;20.90;99.90
25973;DHT22;13765;51.166;4.466;2023-06-14T05:26:46;22.30;99.90
25973;DHT22;13765;51.166;4.466;2023-06-14T05:29:12;23.70;99.90
25973;DHT22;13765;51.166;4.466;2023-06-14T05:31:38;24.60;97.80
25973;DHT22;13765;51.166;4.466;2023-06-14T05:34:04;25.50;96.70
25973;DHT22;13765;51.166;4.466;2023-06-14T05:36:30;26.20;93.70
25973;DHT22;13765;51.166;4.466;2023-06-14T05:39:00;26.60;91.90
25973;DHT22;13765;51.166;4.466;2023-06-14T05:41:29;27.20;91.70
25973;DHT22;13765;51.166;4.466;2023-06-14T05:43:58;27.50;91.00
25973;DHT22;13765;51.166;4.466;2023-06-14T05:46:27;27.80;88.50
25973;DHT22;13765;51.166;4.466;2023-06-14T05:48:54;27.90;87.00
25973;DHT22;13765;51.166;4.466;2023-06-14T05:51:23;28.00;86.10
25973;DHT22;13765;51.166;4.466;2023-06-14T05:53:50;27.80;84.90
25973;DHT22;13765;51.166;4.466;2023-06-14T05:56:18;27.30;87.10
25973;DHT22;13765;51.166;4.466;2023-06-14T05:58:49;27.10;86.00
25973;DHT22;13765;51.166;4.466;2023-06-14T06:01:17;27.00;85.60
25973;DHT22;13765;51.166;4.466;2023-06-14T06:03:43;26.60;85.70
25973;DHT22;13765;51.166;4.466;2023-06-14T06:06:12;26.40;86.90
25973;DHT22;13765;51.166;4.466;2023-06-14T06:08:38;26.00;87.20
25973;DHT22;13765;51.166;4.466;2023-06-14T06:11:04;25.90;87.50
25973;DHT22;13765;51.166;4.466;2023-06-14T06:13:32;25.70;89.80
25973;DHT22;13765;51.166;4.466;2023-06-14T06:15:58;25.70;88.60
25973;DHT22;13765;51.166;4.466;2023-06-14T06:18:23;25.60;89.50
25973;DHT22;13765;51.166;4.466;2023-06-14T06:20:49;25.60;89.00
25973;DHT22;13765;51.166;4.466;2023-06-14T06:23:17;25.60;90.50
25973;DHT22;13765;51.166;4.466;2023-06-14T06:25:43;25.60;89.50
25973;DHT22;13765;51.166;4.466;2023-06-14T06:28:09;25.70;90.30
25973;DHT22;13765;51.166;4.466;2023-06-14T06:30:34;25.50;90.60
25973;DHT22;13765;51.166;4.466;2023-06-14T06:33:02;25.50;90.40
25973;DHT22;13765;51.166;4.466;2023-06-14T06:35:28;25.60;90.70
25973;DHT22;13765;51.166;4.466;2023-06-14T06:37:58;25.60;90.30
25973;DHT22;13765;51.166;4.466;2023-06-14T06:40:26;25.60;90.10
25973;DHT22;13765;51.166;4.466;2023-06-14T06:42:52;25.70;90.80
25973;DHT22;13765;51.166;4.466;2023-06-14T06:45:18;25.90;90.80
25973;DHT22;13765;51.166;4.466;2023-06-14T06:50:13;26.20;90.50
25973;DHT22;13765;51.166;4.466;2023-06-14T06:52:39;25.90;90.80
25973;DHT22;13765;51.166;4.466;2023-06-14T06:55:05;25.90;92.00
25973;DHT22;13765;51.166;4.466;2023-06-14T06:57:31;26.10;91.40
25973;DHT22;13765;51.166;4.466;2023-06-14T06:59:57;26.30;91.30
25973;DHT22;13765;51.166;4.466;2023-06-14T07:02:23;26.60;90.50
25973;DHT22;13765;51.166;4.466;2023-06-14T07:04:48;26.70;89.00
25973;DHT22;13765;51.166;4.466;2023-06-14T07:07:14;26.90;90.50
25973;DHT22;13765;51.166;4.466;2023-06-14T07:09:40;27.00;88.60
25973;DHT22;13765;51.166;4.466;2023-06-14T07:12:07;27.20;88.50
25973;DHT22;13765;51.166;4.466;2023-06-14T07:14:33;27.20;90.00
25973;DHT22;13765;51.166;4.466;2023-06-14T07:16:59;27.30;87.60
25973;DHT22;13765;51.166;4.466;2023-06-14T07:19:24;27.40;88.80
25973;DHT22;13765;51.166;4.466;2023-06-14T07:21:50;27.50;89.00
25973;DHT22;13765;51.166;4.466;2023-06-14T07:24:16;27.40;90.30
25973;DHT22;13765;51.166;4.466;2023-06-14T07:26:41;27.60;88.30
25973;DHT22;13765;51.166;4.466;2023-06-14T07:29:07;27.70;86.90
25973;DHT22;13765;51.166;4.466;2023-06-14T07:31:32;27.70;85.10
25973;DHT22;13765;51.166;4.466;2023-06-14T07:33:58;27.80;85.10
25973;DHT22;13765;51.166;4.466;2023-06-14T07:36:24;27.90;84.80
25973;DHT22;13765;51.166;4.466;2023-06-14T07:38:49;28.10;85.30
25973;DHT22;13765;51.166;4.466;2023-06-14T07:41:16;28.20;85.10
25973;DHT22;13765;51.166;4.466;2023-06-14T07:43:41;28.20;83.20
25973;DHT22;13765;51.166;4.466;2023-06-14T07:46:07;28.30;83.40
25973;DHT22;13765;51.166;4.466;2023-06-14T07:48:40;28.40;83.40
25973;DHT22;13765;51.166;4.466;2023-06-14T07:51:08;28.50;83.40
25973;DHT22;13765;51.166;4.466;2023-06-14T07:53:33;28.50;83.70
25973;DHT22;13765;51.166;4.466;2023-06-14T07:55:59;28.60;85.00
25973;DHT22;13765;51.166;4.466;2023-06-14T07:58:28;28.50;83.70
25973;DHT22;13765;51.166;4.466;2023-06-14T08:00:56;28.60;83.10
25973;DHT22;13765;51.166;4.466;2023-06-14T08:03:21;28.60;84.60
25973;DHT22;13765;51.166;4.466;2023-06-14T08:05:48;28.90;82.80
25973;DHT22;13765;51.166;4.466;2023-06-14T08:08:13;29.10;80.50
25973;DHT22;13765;51.166;4.466;2023-06-14T08:10:39;28.80;80.30
25973;DHT22;13765;51.166;4.466;2023-06-14T08:13:05;28.50;81.20
25973;DHT22;13765;51.166;4.466;2023-06-14T08:15:31;28.50;82.80
25973;DHT22;13765;51.166;4.466;2023-06-14T08:17:56;28.80;81.50
25973;DHT22;13765;51.166;4.466;2023-06-14T08:20:24;28.90;80.60
25973;DHT22;13765;51.166;4.466;2023-06-14T08:22:50;29.00;81.10
25973;DHT22;13765;51.166;4.466;2023-06-14T08:25:20;29.30;80.70
25973;DHT22;13765;51.166;4.466;2023-06-14T08:27:46;29.30;79.90
25973;DHT22;13765;51.166;4.466;2023-06-14T08:30:15;29.10;80.80
25973;DHT22;13765;51.166;4.466;2023-06-14T08:32:41;29.40;80.20
25973;DHT22;13765;51.166;4.466;2023-06-14T08:35:07;29.40;80.30
25973;DHT22;13765;51.166;4.466;2023-06-14T08:37:32;29.70;81.40
25973;DHT22;13765;51.166;4.466;2023-06-14T08:40:01;30.00;80.70
25973;DHT22;13765;51.166;4.466;2023-06-14T08:42:31;30.20;80.60
25973;DHT22;13765;51.166;4.466;2023-06-14T08:44:57;30.20;80.00
25973;DHT22;13765;51.166;4.466;2023-06-14T08:47:25;30.40;80.90
25973;DHT22;13765;51.166;4.466;2023-06-14T08:49:53;30.50;79.10
25973;DHT22;13765;51.166;4.466;2023-06-14T08:52:22;30.60;77.60
25973;DHT22;13765;51.166;4.466;2023-06-14T08:54:49;30.70;77.50
25973;DHT22;13765;51.166;4.466;2023-06-14T08:57:14;30.50;74.30
25973;DHT22;13765;51.166;4.466;2023-06-14T08:59:46;30.80;77.00
25973;DHT22;13765;51.166;4.466;2023-06-14T09:02:14;30.80;75.00
25973;DHT22;13765;51.166;4.466;2023-06-14T09:04:43;30.80;76.60
25973;DHT22;13765;51.166;4.466;2023-06-14T09:07:10;30.60;74.60
25973;DHT22;13765;51.166;4.466;2023-06-14T09:09:41;30.70;76.90
25973;DHT22;13765;51.166;4.466;2023-06-14T09:12:12;30.70;75.50
25973;DHT22;13765;51.166;4.466;2023-06-14T09:14:39;31.10;74.70
25973;DHT22;13765;51.166;4.466;2023-06-14T09:17:07;31.20;73.30
25973;DHT22;13765;51.166;4.466;2023-06-14T09:19:34;31.40;73.10
25973;DHT22;13765;51.166;4.466;2023-06-14T09:22:02;31.70;72.20
25973;DHT22;13765;51.166;4.466;2023-06-14T09:24:28;31.70;70.10
25973;DHT22;13765;51.166;4.466;2023-06-14T09:26:54;31.50;72.00
25973;DHT22;13765;51.166;4.466;2023-06-14T09:29:19;31.50;69.80
25973;DHT22;13765;51.166;4.466;2023-06-14T09:31:48;31.70;71.80
25973;DHT22;13765;51.166;4.466;2023-06-14T09:34:16;31.80;70.30
25973;DHT22;13765;51.166;4.466;2023-06-14T09:36:43;31.70;69.10
25973;DHT22;13765;51.166;4.466;2023-06-14T09:39:09;31.60;69.70
25973;DHT22;13765;51.166;4.466;2023-06-14T09:41:42;31.30;69.40
25973;DHT22;13765;51.166;4.466;2023-06-14T09:44:10;31.70;68.60
25973;DHT22;13765;51.166;4.466;2023-06-14T09:46:37;31.70;66.00
25973;DHT22;13765;51.166;4.466;2023-06-14T09:49:04;31.90;68.80
25973;DHT22;13765;51.166;4.466;2023-06-14T09:51:30;32.10;66.80
25973;DHT22;13765;51.166;4.466;2023-06-14T09:54:02;31.90;65.00
25973;DHT22;13765;51.166;4.466;2023-06-14T09:56:37;31.80;64.70
25973;DHT22;13765;51.166;4.466;2023-06-14T09:59:05;31.90;64.80
25973;DHT22;13765;51.166;4.466;2023-06-14T10:01:35;31.80;65.10
25973;DHT22;13765;51.166;4.466;2023-06-14T10:04:05;31.70;64.90
25973;DHT22;13765;51.166;4.466;2023-06-14T10:06:32;31.70;64.50
25973;DHT22;13765;51.166;4.466;2023-06-14T10:09:00;31.80;64.80
25973;DHT22;13765;51.166;4.466;2023-06-14T10:11:27;31.70;64.70
25973;DHT22;13765;51.166;4.466;2023-06-14T10:13:56;31.90;65.80
25973;DHT22;13765;51.166;4.466;2023-06-14T10:16:31;31.90;63.10
25973;DHT22;13765;51.166;4.466;2023-06-14T10:19:17;31.90;62.30
25973;DHT22;13765;51.166;4.466;2023-06-14T10:21:57;32.00;61.50
25973;DHT22;13765;51.166;4.466;2023-06-14T10:24:30;32.20;62.20
25973;DHT22;13765;51.166;4.466;2023-06-14T10:26:58;31.70;60.10
25973;DHT22;13765;51.166;4.466;2023-06-14T10:29:29;31.60;60.00
25973;DHT22;13765;51.166;4.466;2023-06-14T10:31:58;31.70;61.70
25973;DHT22;13765;51.166;4.466;2023-06-14T10:34:26;32.10;61.10
25973;DHT22;13765;51.166;4.466;2023-06-14T10:39:29;31.70;61.40
25973;DHT22;13765;51.166;4.466;2023-06-14T10:41:57;31.80;59.30
25973;DHT22;13765;51.166;4.466;2023-06-14T10:46:53;31.50;60.00
25973;DHT22;13765;51.166;4.466;2023-06-14T10:49:20;31.40;60.10
25973;DHT22;13765;51.166;4.466;2023-06-14T10:51:50;31.60;62.60
25973;DHT22;13765;51.166;4.466;2023-06-14T10:54:17;31.70;58.80
25973;DHT22;13765;51.166;4.466;2023-06-14T10:56:51;31.80;59.70
25973;DHT22;13765;51.166;4.466;2023-06-14T10:59:18;32.10;59.30
25973;DHT22;13765;51.166;4.466;2023-06-14T11:04:17;32.90;59.10
25973;DHT22;13765;51.166;4.466;2023-06-14T11:06:49;32.80;59.50
25973;DHT22;13765;51.166;4.466;2023-06-14T11:09:36;33.10;59.20
25973;DHT22;13765;51.166;4.466;2023-06-14T11:12:10;32.40;58.50
25973;DHT22;13765;51.166;4.466;2023-06-14T11:14:36;32.80;58.00
25973;DHT22;13765;51.166;4.466;2023-06-14T11:17:02;32.90;57.00
25973;DHT22;13765;51.166;4.466;2023-06-14T11:19:28;33.10;58.50
25973;DHT22;13765;51.166;4.466;2023-06-14T11:21:54;33.20;57.50
25973;DHT22;13765;51.166;4.466;2023-06-14T11:24:20;33.40;57.10
25973;DHT22;13765;51.166;4.466;2023-06-14T11:26:47;32.80;56.10
25973;DHT22;13765;51.166;4.466;2023-06-14T11:29:15;32.80;57.70
25973;DHT22;13765;51.166;4.466;2023-06-14T11:31:45;32.80;56.80
25973;DHT22;13765;51.166;4.466;2023-06-14T11:34:12;32.70;55.80
25973;DHT22;13765;51.166;4.466;2023-06-14T11:36:38;32.50;57.40
25973;DHT22;13765;51.166;4.466;2023-06-14T11:39:07;32.90;55.70
25973;DHT22;13765;51.166;4.466;2023-06-14T11:41:38;33.00;55.70
25973;DHT22;13765;51.166;4.466;2023-06-14T11:44:05;33.10;55.80
25973;DHT22;13765;51.166;4.466;2023-06-14T11:46:31;33.40;57.90
25973;DHT22;13765;51.166;4.466;2023-06-14T11:48:57;33.90;59.20
25973;DHT22;13765;51.166;4.466;2023-06-14T11:51:23;33.90;57.00
25973;DHT22;13765;51.166;4.466;2023-06-14T11:53:49;34.10;55.70
25973;DHT22;13765;51.166;4.466;2023-06-14T11:56:15;33.80;56.30
25973;DHT22;13765;51.166;4.466;2023-06-14T11:58:43;33.90;56.40
25973;DHT22;13765;51.166;4.466;2023-06-14T12:01:09;34.00;54.80
25973;DHT22;13765;51.166;4.466;2023-06-14T12:03:34;34.00;55.10
25973;DHT22;13765;51.166;4.466;2023-06-14T12:06:05;34.10;54.00
25973;DHT22;13765;51.166;4.466;2023-06-14T12:08:38;34.20;53.90
25973;DHT22;13765;51.166;4.466;2023-06-14T12:11:12;34.10;54.10
25973;DHT22;13765;51.166;4.466;2023-06-14T12:13:39;33.90;53.40
25973;DHT22;13765;51.166;4.466;2023-06-14T12:16:09;33.70;54.40
25973;DHT22;13765;51.166;4.466;2023-06-14T12:18:39;33.90;53.60
25973;DHT22;13765;51.166;4.466;2023-06-14T12:21:07;34.10;54.70
25973;DHT22;13765;51.166;4.466;2023-06-14T12:23:59;34.30;53.50
25973;DHT22;13765;51.166;4.466;2023-06-14T12:26:26;33.80;53.80
25973;DHT22;13765;51.166;4.466;2023-06-14T12:28:52;33.70;54.20
25973;DHT22;13765;51.166;4.466;2023-06-14T12:31:18;33.60;54.60
25973;DHT22;13765;51.166;4.466;2023-06-14T12:33:44;33.70;53.30
25973;DHT22;13765;51.166;4.466;2023-06-14T12:36:11;33.80;52.90
25973;DHT22;13765;51.166;4.466;2023-06-14T12:38:37;33.70;53.00
25973;DHT22;13765;51.166;4.466;2023-06-14T12:41:03;33.60;52.70
25973;DHT22;13765;51.166;4.466;2023-06-14T12:43:29;33.40;53.10
25973;DHT22;13765;51.166;4.466;2023-06-14T12:45:55;33.50;52.80
25973;DHT22;13765;51.166;4.466;2023-06-14T12:48:21;33.30;53.30
25973;DHT22;13765;51.166;4.466;2023-06-14T12:53:12;32.90;52.70
25973;DHT22;13765;51.166;4.466;2023-06-14T12:55:38;33.10;52.70
25973;DHT22;13765;51.166;4.466;2023-06-14T12:58:04;33.20;53.50
25973;DHT22;13765;51.166;4.466;2023-06-14T13:00:30;33.60;53.10
25973;DHT22;13765;51.166;4.466;2023-06-14T13:02:56;33.60;51.60
25973;DHT22;13765;51.166;4.466;2023-06-14T13:05:22;33.50;52.20
25973;DHT22;13765;51.166;4.466;2023-06-14T13:07:48;33.60;51.90
25973;DHT22;13765;51.166;4.466;2023-06-14T13:10:14;33.40;50.60
25973;DHT22;13765;51.166;4.466;2023-06-14T13:12:40;33.30;52.10
25973;DHT22;13765;51.166;4.466;2023-06-14T13:15:06;33.40;51.80
25973;DHT22;13765;51.166;4.466;2023-06-14T13:17:34;33.20;52.50
25973;DHT22;13765;51.166;4.466;2023-06-14T13:20:05;33.40;50.80
25973;DHT22;13765;51.166;4.466;2023-06-14T13:22:34;33.20;50.50
25973;DHT22;13765;51.166;4.466;2023-06-14T13:24:59;33.20;50.80
25973;DHT22;13765;51.166;4.466;2023-06-14T13:27:26;33.20;50.40
25973;DHT22;13765;51.166;4.466;2023-06-14T13:29:52;33.20;52.10
25973;DHT22;13765;51.166;4.466;2023-06-14T13:32:18;33.50;52.80
25973;DHT22;13765;51.166;4.466;2023-06-14T13:34:43;33.40;50.90
25973;DHT22;13765;51.166;4.466;2023-06-14T14:01:09;32.20;50.90
25973;DHT22;13765;51.166;4.466;2023-06-14T14:03:36;31.80;50.90
25973;DHT22;13765;51.166;4.466;2023-06-14T14:06:04;32.00;52.50
25973;DHT22;13765;51.166;4.466;2023-06-14T14:08:29;32.20;51.60
25973;DHT22;13765;51.166;4.466;2023-06-14T14:10:56;32.00;50.80
25973;DHT22;13765;51.166;4.466;2023-06-14T14:13:24;32.10;51.40
25973;DHT22;13765;51.166;4.466;2023-06-14T14:15:50;32.10;50.90
25973;DHT22;13765;51.166;4.466;2023-06-14T14:18:16;32.20;50.30
25973;DHT22;13765;51.166;4.466;2023-06-14T14:20:41;32.20;50.70
25973;DHT22;13765;51.166;4.466;2023-06-14T14:23:07;32.10;51.70
25973;DHT22;13765;51.166;4.466;2023-06-14T14:25:35;32.20;51.80
25973;DHT22;13765;51.166;4.466;2023-06-14T14:28:01;32.00;51.20
25973;DHT22;13765;51.166;4.466;2023-06-14T14:30:26;32.20;51.00
25973;DHT22;13765;51.166;4.466;2023-06-14T14:32:52;32.30;51.60
25973;DHT22;13765;51.166;4.466;2023-06-14T14:35:18;32.70;52.20
25973;DHT22;13765;51.166;4.466;2023-06-14T14:37:46;32.80;50.00
25973;DHT22;13765;51.166;4.466;2023-06-14T14:40:11;32.80;50.40
25973;DHT22;13765;51.166;4.466;2023-06-14T14:42:37;32.60;51.30
25973;DHT22;13765;51.166;4.466;2023-06-14T14:45:03;32.20;51.40
25973;DHT22;13765;51.166;4.466;2023-06-14T14:47:29;32.20;51.90
25973;DHT22;13765;51.166;4.466;2023-06-14T14:49:55;32.30;52.90
25973;DHT22;13765;51.166;4.466;2023-06-14T14:52:20;32.40;53.50
25973;DHT22;13765;51.166;4.466;2023-06-14T14:54:46;32.60;52.10
25973;DHT22;13765;51.166;4.466;2023-06-14T14:57:12;32.70;51.30
25973;DHT22;13765;51.166;4.466;2023-06-14T14:59:37;32.80;51.90
25973;DHT22;13765;51.166;4.466;2023-06-14T15:02:03;32.90;51.80
25973;DHT22;13765;51.166;4.466;2023-06-14T15:04:29;32.90;52.30
25973;DHT22;13765;51.166;4.466;2023-06-14T15:06:55;33.00;52.80
25973;DHT22;13765;51.166;4.466;2023-06-14T15:09:20;32.90;51.10
25973;DHT22;13765;51.166;4.466;2023-06-14T15:11:48;32.70;50.90
25973;DHT22;13765;51.166;4.466;2023-06-14T15:14:14;32.70;52.20
25973;DHT22;13765;51.166;4.466;2023-06-14T15:16:42;32.60;51.40
25973;DHT22;13765;51.166;4.466;2023-06-14T15:19:08;32.70;51.40
25973;DHT22;13765;51.166;4.466;2023-06-14T15:21:33;32.70;51.50
25973;DHT22;13765;51.166;4.466;2023-06-14T15:23:59;32.50;52.40
25973;DHT22;13765;51.166;4.466;2023-06-14T15:26:27;32.50;52.80
25973;DHT22;13765;51.166;4.466;2023-06-14T15:28:55;32.70;51.90
25973;DHT22;13765;51.166;4.466;2023-06-14T15:31:23;32.50;51.40
25973;DHT22;13765;51.166;4.466;2023-06-14T15:33:53;32.40;51.60
25973;DHT22;13765;51.166;4.466;2023-06-14T15:36:18;32.40;51.90
25973;DHT22;13765;51.166;4.466;2023-06-14T15:38:45;32.20;52.70
25973;DHT22;13765;51.166;4.466;2023-06-14T15:41:10;32.20;50.70
25973;DHT22;13765;51.166;4.466;2023-06-14T15:43:36;32.00;51.20
25973;DHT22;13765;51.166;4.466;2023-06-14T15:46:02;32.00;51.90
25973;DHT22;13765;51.166;4.466;2023-06-14T15:48:30;31.10;52.70
25973;DHT22;13765;51.166;4.466;2023-06-14T15:50:55;30.90;54.00
25973;DHT22;13765;51.166;4.466;2023-06-14T15:53:21;31.20;53.20
25973;DHT22;13765;51.166;4.466;2023-06-14T15:55:47;31.10;52.90
25973;DHT22;13765;51.166;4.466;2023-06-14T15:58:12;31.10;52.90
25973;DHT22;13765;51.166;4.466;2023-06-14T16:00:38;31.20;53.80
25973;DHT22;13765;51.166;4.466;2023-06-14T16:03:04;31.20;52.40
25973;DHT22;13765;51.166;4.466;2023-06-14T16:05:29;31.10;53.60
25973;DHT22;13765;51.166;4.466;2023-06-14T16:07:55;30.70;52.60
25973;DHT22;13765;51.166;4.466;2023-06-14T16:10:20;30.40;53.00
25973;DHT22;13765;51.166;4.466;2023-06-14T16:12:46;30.40;53.10